Millwood, Washington
Current Conditions -  °F | °C
As of 3:53 AM on Sunday 25 Jan 2015 (Local Time) from KSFF Reporting Station
Overcast Overcast  
Wind Chill: 40°   Ceiling: 1600
Heat Index: 40°   Visibility: 10mi
Dew Point: 37°   Wind: 3mph
Humidity: 89%   Direction: 200°SSW
Pressure: 30.23"   Gusts: NA
Location:  47.6566°N, 117.307°W
Report Text: KSFF 251153Z AUTO 20003KT 10SM OVC016 04/03 A3023 RMK AO2 SLP248 T00440028 10050 20044 50001
Loading
Personal Weather Stations






























Interactive Weather Map New forecast layout! Learn more

10-Day Weather Forecast

Advertisements
Track Severe Weather on mobile